Time;durP1;ratioP1;P1;durP2;ratioP2;P2;SDS_P1;SDS_P2;PMS_P1;PMS_P2;Temp;Humidity;BMP_temperature;BMP_pressure;BME280_temperature;BME280_humidity;BME280_pressure;Samples;Min_cycle;Max_cycle;Signal;HPM_P1;HPM_P2
2023/05/04 00:01:18;;;;;;;33.77;20.07;;;;;;;;;;6321010;28;20106;-77
2023/05/04 00:04:19;;;;;;;37.93;20.17;;;;;;;;;;6317533;28;20102;-77
2023/05/04 00:07:19;;;;;;;44.03;23.27;;;;;;;;;;6317634;28;20016;-77
2023/05/04 00:10:19;;;;;;;41.77;22.80;;;;;;;;;;6319834;28;20059;-77
2023/05/04 00:13:20;;;;;;;46.77;27.27;;;;;;;;;;6315953;28;20073;-77
2023/05/04 00:16:20;;;;;;;62.60;33.70;;;;;;;;;;6301890;28;20277;-77
2023/05/04 00:19:20;;;;;;;55.63;29.63;;;;;;;;;;6310659;28;20525;-77
2023/05/04 00:22:21;;;;;;;62.27;35.40;;;;;;;;;;6315570;28;20024;-77
2023/05/04 00:25:21;;;;;;;59.58;34.05;;;;;;;;;;6317720;28;20597;-77
2023/05/04 00:28:21;;;;;;;59.67;32.90;;;;;;;;;;6317217;28;20098;-77
2023/05/04 00:31:21;;;;;;;61.40;30.20;;;;;;;;;;6321395;28;20365;-77
2023/05/04 00:34:21;;;;;;;44.35;26.70;;;;;;;;;;6310357;28;20144;-78
2023/05/04 00:37:22;;;;;;;59.23;31.37;;;;;;;;;;6321112;28;20047;-77
2023/05/04 00:40:22;;;;;;;64.23;32.67;;;;;;;;;;6332009;28;20024;-77
2023/05/04 00:43:22;;;;;;;52.13;26.33;;;;;;;;;;6307957;28;20019;-77
2023/05/04 00:46:22;;;;;;;46.83;26.50;;;;;;;;;;6314396;28;20008;-78
2023/05/04 00:49:23;;;;;;;58.00;30.80;;;;;;;;;;6316015;28;20610;-83
2023/05/04 00:52:23;;;;;;;58.13;29.53;;;;;;;;;;6316686;28;20537;-83
2023/05/04 00:55:24;;;;;;;56.77;30.30;;;;;;;;;;6313407;28;20008;-81
2023/05/04 00:58:25;;;;;;;50.08;29.40;;;;;;;;;;6314979;28;20547;-82
2023/05/04 01:01:25;;;;;;;51.40;27.13;;;;;;;;;;6314047;28;20085;-84
2023/05/04 01:04:25;;;;;;;41.93;22.13;;;;;;;;;;6313732;28;20355;-83
2023/05/04 01:07:42;;;;;;;41.83;25.83;;;;;;;;;;6314842;28;20441;-84
2023/05/04 01:10:48;;;;;;;45.28;23.20;;;;;;;;;;6318008;28;20035;-83
2023/05/04 01:13:50;;;;;;;36.15;20.02;;;;;;;;;;6319489;28;20153;-84
2023/05/04 01:16:55;;;;;;;33.88;17.05;;;;;;;;;;6319678;28;20045;-83
2023/05/04 01:19:55;;;;;;;33.60;20.23;;;;;;;;;;6308659;28;20012;-84
2023/05/04 01:22:56;;;;;;;27.95;16.10;;;;;;;;;;6318310;28;20380;-84
2023/05/04 01:26:05;;;;;;;22.67;13.73;;;;;;;;;;6319541;28;20012;-84
2023/05/04 01:29:15;;;;;;;22.13;12.40;;;;;;;;;;6312382;28;20378;-83
2023/05/04 01:32:16;;;;;;;23.98;13.13;;;;;;;;;;6311513;28;20494;-84
2023/05/04 01:35:17;;;;;;;25.25;14.07;;;;;;;;;;6319925;28;20097;-84
2023/05/04 01:38:17;;;;;;;22.83;13.68;;;;;;;;;;6318647;28;20020;-83
2023/05/04 01:41:18;;;;;;;25.63;13.63;;;;;;;;;;6306996;28;20093;-83
2023/05/04 01:44:18;;;;;;;26.87;16.47;;;;;;;;;;6318590;28;20016;-84
2023/05/04 01:47:18;;;;;;;26.85;14.13;;;;;;;;;;6319533;28;20016;-83
2023/05/04 01:50:18;;;;;;;24.80;15.00;;;;;;;;;;6302958;28;20065;-84
2023/05/04 01:53:19;;;;;;;33.00;15.83;;;;;;;;;;6317398;28;20020;-84
2023/05/04 01:56:19;;;;;;;27.87;15.57;;;;;;;;;;6318703;28;20269;-84
2023/05/04 01:59:19;;;;;;;27.83;15.27;;;;;;;;;;6319644;28;20027;-78
2023/05/04 02:02:20;;;;;;;29.97;15.93;;;;;;;;;;6309978;28;20163;-78
2023/05/04 02:05:20;;;;;;;28.02;15.82;;;;;;;;;;6317253;28;20417;-78
2023/05/04 02:08:20;;;;;;;27.10;15.57;;;;;;;;;;6316857;28;20016;-78
2023/05/04 02:11:21;;;;;;;32.27;17.77;;;;;;;;;;6318650;28;20067;-78
2023/05/04 02:14:22;;;;;;;28.15;16.42;;;;;;;;;;6314269;28;20023;-78
2023/05/04 02:17:22;;;;;;;29.23;17.95;;;;;;;;;;6313453;28;20028;-78
2023/05/04 02:20:24;;;;;;;31.02;16.15;;;;;;;;;;6318687;28;20035;-78
2023/05/04 02:23:24;;;;;;;30.80;19.48;;;;;;;;;;6318741;28;20031;-78
2023/05/04 02:26:24;;;;;;;37.43;21.17;;;;;;;;;;6317175;28;20382;-78
2023/05/04 02:29:24;;;;;;;32.97;20.70;;;;;;;;;;6319244;28;20028;-78
2023/05/04 02:32:25;;;;;;;32.10;19.95;;;;;;;;;;6300088;28;20031;-78
2023/05/04 02:35:25;;;;;;;34.97;20.53;;;;;;;;;;6299840;28;20031;-77
2023/05/04 02:38:25;;;;;;;38.07;19.97;;;;;;;;;;6314546;28;20016;-78
2023/05/04 02:41:26;;;;;;;34.23;19.57;;;;;;;;;;6312444;28;20124;-78
2023/05/04 02:44:26;;;;;;;36.50;17.20;;;;;;;;;;6314940;28;20008;-78
2023/05/04 02:47:26;;;;;;;27.67;18.20;;;;;;;;;;6318869;28;20047;-77
2023/05/04 02:50:27;;;;;;;34.53;20.73;;;;;;;;;;6317817;28;20023;-78
2023/05/04 02:53:27;;;;;;;35.17;19.35;;;;;;;;;;6316551;28;20031;-77
2023/05/04 02:56:27;;;;;;;31.95;18.58;;;;;;;;;;6316752;28;20020;-78
2023/05/04 02:59:28;;;;;;;34.03;18.87;;;;;;;;;;6323879;28;20024;-78
2023/05/04 03:02:28;;;;;;;37.30;20.57;;;;;;;;;;6320881;28;20051;-78
2023/05/04 03:05:29;;;;;;;38.70;21.57;;;;;;;;;;6323212;28;20073;-78
2023/05/04 03:08:29;;;;;;;37.67;19.00;;;;;;;;;;6323485;28;20080;-78
2023/05/04 03:11:30;;;;;;;39.37;19.53;;;;;;;;;;6321880;28;20028;-78
2023/05/04 03:14:30;;;;;;;33.23;16.90;;;;;;;;;;6317170;28;20028;-78
2023/05/04 03:17:30;;;;;;;34.20;18.13;;;;;;;;;;6316800;28;20027;-77
2023/05/04 03:20:30;;;;;;;40.73;20.17;;;;;;;;;;6309376;28;20033;-82
2023/05/04 03:23:30;;;;;;;35.90;18.92;;;;;;;;;;6322799;28;20020;-83
2023/05/04 03:26:31;;;;;;;65.60;29.07;;;;;;;;;;6321871;28;20024;-83
2023/05/04 03:29:31;;;;;;;37.90;19.45;;;;;;;;;;6321235;28;20012;-83
2023/05/04 03:32:31;;;;;;;45.55;22.73;;;;;;;;;;6322324;28;20028;-82
2023/05/04 03:35:32;;;;;;;55.50;25.07;;;;;;;;;;6321799;28;20028;-82
2023/05/04 03:38:32;;;;;;;43.70;24.20;;;;;;;;;;6315806;28;20572;-81
2023/05/04 03:41:33;;;;;;;37.07;19.57;;;;;;;;;;6321476;28;20516;-81
2023/05/04 03:44:33;;;;;;;31.88;16.50;;;;;;;;;;6321668;28;20024;-81
2023/05/04 03:47:33;;;;;;;29.87;14.70;;;;;;;;;;6321883;28;20028;-81
2023/05/04 03:50:34;;;;;;;27.33;14.40;;;;;;;;;;6321312;28;20020;-82
2023/05/04 03:53:34;;;;;;;31.70;17.50;;;;;;;;;;6321862;28;20044;-82
2023/05/04 03:56:34;;;;;;;33.83;14.37;;;;;;;;;;6321030;28;20095;-80
2023/05/04 03:59:34;;;;;;;31.50;16.30;;;;;;;;;;6321371;28;20435;-81
2023/05/04 04:02:35;;;;;;;37.80;19.77;;;;;;;;;;6299420;28;20100;-81
2023/05/04 04:05:36;;;;;;;37.20;18.50;;;;;;;;;;6295893;28;20048;-82
2023/05/04 04:08:36;;;;;;;36.08;19.17;;;;;;;;;;6305036;28;20021;-82
2023/05/04 04:11:36;;;;;;;40.47;21.75;;;;;;;;;;6308339;28;20048;-82
2023/05/04 04:14:36;;;;;;;38.40;17.67;;;;;;;;;;6307456;28;20027;-81
2023/05/04 04:17:37;;;;;;;28.08;15.20;;;;;;;;;;6306568;28;20078;-83
2023/05/04 04:20:37;;;;;;;23.77;14.87;;;;;;;;;;6299903;28;20489;-83
2023/05/04 04:23:37;;;;;;;32.25;17.73;;;;;;;;;;6288344;28;20028;-84
2023/05/04 04:26:37;;;;;;;139.93;51.33;;;;;;;;;;6306631;28;20020;-83
2023/05/04 04:29:38;;;;;;;315.87;102.40;;;;;;;;;;6296715;28;20032;-81
2023/05/04 04:32:39;;;;;;;97.03;39.83;;;;;;;;;;6299261;28;20390;-80
2023/05/04 04:35:40;;;;;;;35.72;19.10;;;;;;;;;;6280465;28;20021;-81
2023/05/04 04:38:41;;;;;;;43.80;23.95;;;;;;;;;;6305709;28;20037;-81
2023/05/04 04:41:41;;;;;;;44.05;24.25;;;;;;;;;;6295797;28;20545;-81
2023/05/04 04:44:41;;;;;;;46.60;23.87;;;;;;;;;;6304594;28;20418;-81
2023/05/04 04:47:41;;;;;;;51.70;28.33;;;;;;;;;;6294347;28;20028;-82
2023/05/04 04:50:41;;;;;;;51.60;26.63;;;;;;;;;;6298255;28;20031;-83
2023/05/04 04:53:42;;;;;;;54.23;30.90;;;;;;;;;;6304046;28;20028;-82
2023/05/04 04:56:44;;;;;;;59.17;29.63;;;;;;;;;;6301106;28;20258;-82
2023/05/04 04:59:45;;;;;;;63.00;30.75;;;;;;;;;;6280466;28;20652;-81
2023/05/04 05:02:45;;;;;;;55.75;28.58;;;;;;;;;;6325611;28;20044;-84
2023/05/04 05:05:45;;;;;;;61.20;29.33;;;;;;;;;;6321908;28;20020;-83
2023/05/04 05:08:45;;;;;;;50.70;24.97;;;;;;;;;;6316919;28;20028;-82
2023/05/04 05:11:46;;;;;;;54.37;27.43;;;;;;;;;;6321430;28;20457;-83
2023/05/04 05:14:49;;;;;;;47.50;31.53;;;;;;;;;;6329357;28;20078;-81
2023/05/04 05:17:49;;;;;;;43.72;25.92;;;;;;;;;;6321767;28;20501;-83
2023/05/04 05:20:49;;;;;;;46.67;27.65;;;;;;;;;;6319347;28;20020;-82
2023/05/04 05:23:50;;;;;;;43.70;25.37;;;;;;;;;;6310136;28;20012;-83
2023/05/04 05:26:51;;;;;;;90.43;41.07;;;;;;;;;;6313282;28;20028;-81
2023/05/04 05:29:53;;;;;;;;;;;;;;;;;;6318699;28;20035;-82
2023/05/04 05:32:53;;;;;;;33.05;17.17;;;;;;;;;;6319180;28;20285;-81
2023/05/04 05:35:53;;;;;;;22.50;13.60;;;;;;;;;;6321668;28;20024;-81
2023/05/04 05:38:53;;;;;;;27.77;14.77;;;;;;;;;;6301618;28;20151;-81
2023/05/04 05:41:56;;;;;;;25.80;13.07;;;;;;;;;;6317838;28;20023;-77
2023/05/04 05:44:56;;;;;;;26.48;15.32;;;;;;;;;;6321984;28;20022;-78
2023/05/04 05:47:57;;;;;;;24.07;13.50;;;;;;;;;;6325333;28;20016;-78
2023/05/04 05:50:57;;;;;;;32.40;14.25;;;;;;;;;;6305598;28;20027;-76
2023/05/04 05:53:57;;;;;;;26.83;14.20;;;;;;;;;;6313366;28;20032;-77
2023/05/04 05:56:57;;;;;;;25.67;13.57;;;;;;;;;;6310803;28;20066;-77
2023/05/04 05:59:58;;;;;;;25.40;14.17;;;;;;;;;;6309927;28;20477;-77
2023/05/04 06:02:58;;;;;;;28.23;14.60;;;;;;;;;;6301438;28;20493;-76
2023/05/04 06:05:58;;;;;;;19.87;10.50;;;;;;;;;;6319786;28;20040;-76
2023/05/04 06:08:59;;;;;;;18.30;10.17;;;;;;;;;;6313596;28;20050;-77
2023/05/04 06:12:00;;;;;;;23.27;12.60;;;;;;;;;;6299547;28;20027;-77
2023/05/04 06:15:01;;;;;;;22.90;12.38;;;;;;;;;;6334366;28;20126;-77
2023/05/04 06:18:01;;;;;;;15.93;9.15;;;;;;;;;;6325250;28;20243;-77
2023/05/04 06:21:02;;;;;;;6.80;3.90;;;;;;;;;;6311836;28;20037;-77
2023/05/04 06:24:03;;;;;;;9.27;4.00;;;;;;;;;;6322443;28;20363;-77
2023/05/04 06:27:03;;;;;;;8.77;4.30;;;;;;;;;;6313882;28;20020;-76
2023/05/04 06:30:04;;;;;;;5.77;2.07;;;;;;;;;;6316119;28;20023;-76
2023/05/04 06:33:05;;;;;;;4.07;2.10;;;;;;;;;;6312961;28;20040;-76
2023/05/04 06:36:06;;;;;;;2.25;1.55;;;;;;;;;;6320741;28;20024;-76
2023/05/04 06:39:06;;;;;;;5.03;2.00;;;;;;;;;;6301186;28;20008;-76
2023/05/04 06:42:06;;;;;;;5.23;2.10;;;;;;;;;;6319868;28;20022;-76
2023/05/04 06:45:07;;;;;;;4.57;2.23;;;;;;;;;;6322058;28;20020;-76
2023/05/04 06:48:07;;;;;;;2.88;1.42;;;;;;;;;;6321405;28;20026;-76
2023/05/04 06:51:08;;;;;;;5.95;2.53;;;;;;;;;;6312039;28;20100;-81
2023/05/04 06:54:08;;;;;;;;;;;;;;;;;;6309061;28;20493;-81
2023/05/04 06:57:08;;;;;;;4.38;2.28;;;;;;;;;;6318742;28;19914;-82
2023/05/04 07:00:09;;;;;;;5.85;1.65;;;;;;;;;;6324875;28;20016;-80
2023/05/04 07:03:09;;;;;;;;;;;;;;;;;;6315008;28;20171;-82
2023/05/04 07:06:10;;;;;;;4.67;1.83;;;;;;;;;;6309395;28;19924;-82
2023/05/04 07:09:10;;;;;;;3.03;2.17;;;;;;;;;;6323250;28;20473;-83
2023/05/04 07:12:10;;;;;;;5.53;2.08;;;;;;;;;;6317206;28;20051;-82
2023/05/04 07:15:11;;;;;;;3.25;2.17;;;;;;;;;;6334449;28;20016;-80
2023/05/04 07:18:11;;;;;;;5.17;2.27;;;;;;;;;;6315607;28;20071;-83
2023/05/04 07:21:11;;;;;;;3.60;1.97;;;;;;;;;;6327247;28;20465;-81
2023/05/04 07:24:12;;;;;;;5.35;2.33;;;;;;;;;;6311106;28;20016;-81
2023/05/04 07:27:12;;;;;;;4.27;2.33;;;;;;;;;;6313052;28;20016;-81
2023/05/04 07:30:12;;;;;;;4.63;2.70;;;;;;;;;;6314169;28;20056;-82
2023/05/04 07:33:12;;;;;;;6.07;2.40;;;;;;;;;;6317032;28;20039;-81
2023/05/04 07:36:13;;;;;;;4.87;2.33;;;;;;;;;;6297153;28;20021;-82
2023/05/04 07:39:15;;;;;;;5.93;2.57;;;;;;;;;;6313649;28;20039;-82
2023/05/04 07:42:15;;;;;;;4.43;2.60;;;;;;;;;;6323159;28;20036;-81
2023/05/04 07:45:16;;;;;;;6.93;2.93;;;;;;;;;;6302603;28;20016;-81
2023/05/04 07:48:16;;;;;;;3.20;2.25;;;;;;;;;;6320845;28;20497;-81
2023/05/04 07:51:17;;;;;;;6.43;3.00;;;;;;;;;;6318891;28;20020;-81
2023/05/04 07:54:17;;;;;;;4.90;2.25;;;;;;;;;;6298277;28;20023;-81
2023/05/04 07:57:17;;;;;;;5.07;2.30;;;;;;;;;;6323347;28;20074;-81
2023/05/04 08:00:18;;;;;;;4.53;2.33;;;;;;;;;;6324987;28;20051;-77
2023/05/04 08:03:18;;;;;;;2.67;2.22;;;;;;;;;;6324759;28;20031;-77
2023/05/04 08:06:20;;;;;;;5.80;2.90;;;;;;;;;;6335509;28;20027;-77
2023/05/04 08:09:21;;;;;;;5.45;2.00;;;;;;;;;;6308803;28;20102;-82
2023/05/04 08:12:22;;;;;;;2.30;1.73;;;;;;;;;;6311427;28;20022;-82
2023/05/04 08:15:23;;;;;;;3.00;1.88;;;;;;;;;;6324822;28;20062;-82
2023/05/04 08:18:23;;;;;;;4.67;2.37;;;;;;;;;;6337283;28;20062;-82
2023/05/04 08:21:23;;;;;;;6.77;2.80;;;;;;;;;;6312285;28;20058;-82
2023/05/04 08:24:23;;;;;;;3.10;2.23;;;;;;;;;;6333847;28;20020;-82
2023/05/04 08:27:24;;;;;;;17.57;2.80;;;;;;;;;;6318717;28;20012;-82
2023/05/04 08:30:24;;;;;;;4.10;2.83;;;;;;;;;;6333730;28;20077;-82
2023/05/04 08:33:24;;;;;;;3.08;1.92;;;;;;;;;;6311315;28;20020;-82
2023/05/04 08:36:26;;;;;;;3.87;2.23;;;;;;;;;;6325131;28;20595;-83
2023/05/04 08:39:26;;;;;;;2.95;1.98;;;;;;;;;;6309771;28;20024;-81
2023/05/04 08:42:30;;;;;;;4.87;2.60;;;;;;;;;;6298589;28;20027;-82
2023/05/04 08:45:32;;;;;;;3.92;2.33;;;;;;;;;;6319037;28;20027;-82
2023/05/04 08:48:33;;;;;;;5.85;2.55;;;;;;;;;;6323577;28;20077;-82
2023/05/04 08:51:35;;;;;;;2.95;2.10;;;;;;;;;;6313510;28;20024;-82
2023/05/04 08:54:36;;;;;;;4.70;2.30;;;;;;;;;;6305175;28;20020;-82
2023/05/04 08:57:36;;;;;;;4.80;2.40;;;;;;;;;;6316106;28;20031;-80
2023/05/04 09:00:37;;;;;;;4.17;2.17;;;;;;;;;;6286082;28;20046;-81
2023/05/04 09:03:38;;;;;;;3.53;2.15;;;;;;;;;;6315886;28;20016;-82
2023/05/04 09:06:38;;;;;;;2.47;1.87;;;;;;;;;;6309886;28;21371;-82
2023/05/04 09:09:38;;;;;;;5.27;2.23;;;;;;;;;;6312011;28;20023;-77
2023/05/04 09:12:38;;;;;;;7.13;2.50;;;;;;;;;;6318154;28;20077;-77
2023/05/04 09:15:39;;;;;;;5.53;2.40;;;;;;;;;;6319491;28;20012;-77
2023/05/04 09:18:40;;;;;;;4.93;2.50;;;;;;;;;;6324562;28;20545;-77
2023/05/04 09:21:40;;;;;;;3.78;2.00;;;;;;;;;;6312601;28;20021;-81
2023/05/04 09:24:40;;;;;;;4.33;2.37;;;;;;;;;;6309674;28;20073;-81
2023/05/04 09:27:51;;;;;;;4.87;2.53;;;;;;;;;;6318628;28;20493;-81
2023/05/04 09:30:58;;;;;;;5.33;2.23;;;;;;;;;;6319336;28;20051;-81
2023/05/04 09:34:07;;;;;;;3.30;2.00;;;;;;;;;;6313415;28;20035;-81
2023/05/04 09:37:07;;;;;;;6.63;2.67;;;;;;;;;;6323321;28;20474;-80
2023/05/04 09:40:08;;;;;;;5.10;2.60;;;;;;;;;;6311985;28;20034;-81
2023/05/04 09:43:09;;;;;;;5.03;2.33;;;;;;;;;;6301813;28;20026;-82
2023/05/04 09:46:17;;;;;;;3.38;2.17;;;;;;;;;;6314705;28;20022;-81
2023/05/04 09:49:18;;;;;;;4.72;2.33;;;;;;;;;;6319113;28;20478;-81
2023/05/04 09:52:18;;;;;;;5.10;2.72;;;;;;;;;;6315524;28;20048;-81
2023/05/04 09:55:19;;;;;;;3.30;2.10;;;;;;;;;;6320912;28;20359;-81
2023/05/04 09:58:20;;;;;;;5.20;2.23;;;;;;;;;;6321010;28;20024;-81
2023/05/04 10:01:20;;;;;;;4.77;2.23;;;;;;;;;;6317336;28;20446;-81
2023/05/04 10:04:20;;;;;;;5.50;2.45;;;;;;;;;;6295416;28;20560;-81
2023/05/04 10:07:21;;;;;;;3.17;1.97;;;;;;;;;;6326332;28;20016;-81
2023/05/04 10:10:21;;;;;;;5.87;2.43;;;;;;;;;;6322774;28;20024;-81
2023/05/04 10:13:22;;;;;;;3.70;2.10;;;;;;;;;;6310809;28;20098;-80
2023/05/04 10:16:34;;;;;;;5.73;3.23;;;;;;;;;;6326700;28;20436;-80
2023/05/04 10:19:55;;;;;;;6.38;2.47;;;;;;;;;;6315482;28;20780;-81
2023/05/04 10:23:06;;;;;;;4.82;2.92;;;;;;;;;;6320852;28;20084;-81
2023/05/04 10:26:22;;;;;;;3.22;2.25;;;;;;;;;;6299474;28;20376;-81
2023/05/04 10:29:23;;;;;;;4.25;2.55;;;;;;;;;;6319566;28;20028;-81
2023/05/04 10:32:23;;;;;;;5.43;2.58;;;;;;;;;;6296350;28;20040;-80
2023/05/04 10:35:24;;;;;;;4.67;2.50;;;;;;;;;;6312397;28;20099;-81
2023/05/04 10:38:32;;;;;;;4.28;2.72;;;;;;;;;;6295622;28;20032;-80
2023/05/04 10:41:32;;;;;;;4.32;2.33;;;;;;;;;;6307298;28;20036;-81
2023/05/04 10:44:48;;;;;;;5.70;3.00;;;;;;;;;;6296666;28;20061;-81
2023/05/04 10:47:57;;;;;;;3.95;2.25;;;;;;;;;;6319003;28;20012;-81
2023/05/04 10:50:57;;;;;;;5.53;2.30;;;;;;;;;;6301389;28;20017;-81
2023/05/04 10:54:00;;;;;;;7.30;3.33;;;;;;;;;;6306261;28;20553;-79
2023/05/04 10:57:04;;;;;;;6.38;2.33;;;;;;;;;;6311713;28;20024;-80
2023/05/04 11:00:04;;;;;;;4.15;2.38;;;;;;;;;;6309191;28;20028;-80
2023/05/04 11:03:06;;;;;;;5.93;2.60;;;;;;;;;;6321719;28;20059;-80
2023/05/04 11:06:06;;;;;;;;;;;;;;;;;;6314107;28;20012;-81
2023/05/04 11:09:11;;;;;;;3.45;1.90;;;;;;;;;;6317769;28;19904;-80
2023/05/04 11:12:11;;;;;;;;;;;;;;;;;;6320550;28;20027;-80
2023/05/04 11:15:11;;;;;;;4.43;2.35;;;;;;;;;;6296792;28;19996;-80
2023/05/04 11:18:12;;;;;;;4.13;2.10;;;;;;;;;;6317615;28;20056;-81
2023/05/04 11:21:21;;;;;;;3.40;2.23;;;;;;;;;;6322970;28;20036;-80
2023/05/04 11:24:21;;;;;;;3.90;2.45;;;;;;;;;;6329354;28;20032;-80
2023/05/04 11:27:29;;;;;;;5.80;2.50;;;;;;;;;;6324216;28;20379;-80
2023/05/04 11:30:31;;;;;;;3.97;2.17;;;;;;;;;;6288960;28;20438;-77
2023/05/04 11:33:31;;;;;;;4.18;2.35;;;;;;;;;;6330856;28;20078;-78
2023/05/04 11:36:38;;;;;;;6.10;3.37;;;;;;;;;;6320883;28;20465;-78
2023/05/04 11:39:38;;;;;;;4.25;2.03;;;;;;;;;;6300823;28;20158;-81
2023/05/04 11:42:39;;;;;;;2.70;2.00;;;;;;;;;;6321903;28;20374;-80
2023/05/04 11:45:40;;;;;;;7.38;2.35;;;;;;;;;;6298429;28;20016;-80
2023/05/04 11:48:40;;;;;;;4.18;2.53;;;;;;;;;;6315044;28;20806;-80
2023/05/04 11:51:40;;;;;;;4.27;2.47;;;;;;;;;;6294163;28;20023;-81
2023/05/04 11:54:41;;;;;;;4.63;2.23;;;;;;;;;;6328739;28;20024;-80
2023/05/04 11:57:41;;;;;;;6.00;2.67;;;;;;;;;;6327676;28;20016;-81
2023/05/04 12:00:42;;;;;;;4.25;2.10;;;;;;;;;;6321161;28;20091;-80
2023/05/04 12:03:44;;;;;;;5.28;2.60;;;;;;;;;;6320940;28;20043;-81
2023/05/04 12:06:45;;;;;;;;;;;;;;;;;;6319709;28;20466;-81
2023/05/04 12:09:46;;;;;;;6.63;3.13;;;;;;;;;;6328249;28;19914;-81
2023/05/04 12:12:46;;;;;;;;;;;;;;;;;;6337394;28;20782;-79
2023/05/04 12:15:47;;;;;;;4.97;2.88;;;;;;;;;;6326691;28;20405;-79
2023/05/04 12:18:47;;;;;;;5.20;2.00;;;;;;;;;;6324074;28;20028;-80
2023/05/04 12:21:50;;;;;;;10.43;3.80;;;;;;;;;;6304547;28;20062;-80
2023/05/04 12:24:51;;;;;;;4.22;2.05;;;;;;;;;;6324196;28;20020;-80
2023/05/04 12:27:52;;;;;;;6.80;2.40;;;;;;;;;;6318673;28;20029;-80
2023/05/04 12:30:53;;;;;;;5.87;2.50;;;;;;;;;;6325133;28;20172;-80
2023/05/04 12:33:53;;;;;;;3.42;2.40;;;;;;;;;;6309632;28;20624;-80
2023/05/04 12:36:54;;;;;;;4.17;2.37;;;;;;;;;;6315061;28;20016;-80
2023/05/04 12:39:54;;;;;;;4.20;2.57;;;;;;;;;;6312334;28;20436;-76
2023/05/04 12:42:55;;;;;;;4.38;2.35;;;;;;;;;;6323694;28;20022;-77
2023/05/04 12:45:58;;;;;;;3.97;2.43;;;;;;;;;;6333953;28;20069;-77
2023/05/04 12:48:58;;;;;;;5.00;2.28;;;;;;;;;;6322888;28;20345;-77
2023/05/04 12:51:58;;;;;;;8.53;2.60;;;;;;;;;;6317594;28;20019;-77
2023/05/04 12:54:58;;;;;;;5.83;2.37;;;;;;;;;;6309949;28;20096;-77
2023/05/04 12:57:59;;;;;;;4.83;2.53;;;;;;;;;;6305657;28;20516;-77
2023/05/04 13:00:59;;;;;;;4.83;2.43;;;;;;;;;;6318610;28;20424;-77
2023/05/04 13:03:59;;;;;;;3.20;2.20;;;;;;;;;;6300263;28;20102;-77
2023/05/04 13:07:00;;;;;;;3.77;2.53;;;;;;;;;;6325015;28;20031;-76
2023/05/04 13:10:00;;;;;;;3.90;2.40;;;;;;;;;;6321100;28;20020;-76
2023/05/04 13:13:00;;;;;;;5.30;2.67;;;;;;;;;;6320929;28;20433;-76
2023/05/04 13:16:01;;;;;;;5.10;2.13;;;;;;;;;;6320878;28;20016;-77
2023/05/04 13:19:01;;;;;;;4.72;2.15;;;;;;;;;;6324427;28;20027;-77
2023/05/04 13:22:03;;;;;;;3.60;2.08;;;;;;;;;;6325996;28;20482;-77
2023/05/04 13:25:04;;;;;;;6.03;2.50;;;;;;;;;;6299723;28;20077;-77
2023/05/04 13:28:04;;;;;;;3.78;2.28;;;;;;;;;;6319034;28;20362;-77
2023/05/04 13:31:05;;;;;;;6.40;2.40;;;;;;;;;;6311272;28;20054;-77
2023/05/04 13:34:05;;;;;;;3.27;2.37;;;;;;;;;;6322497;28;20378;-77
2023/05/04 13:37:05;;;;;;;8.33;3.43;;;;;;;;;;6317863;28;20137;-77
2023/05/04 13:40:06;;;;;;;3.53;1.90;;;;;;;;;;6332149;28;20039;-77
2023/05/04 13:43:06;;;;;;;2.58;1.95;;;;;;;;;;6307981;28;20103;-77
2023/05/04 13:46:06;;;;;;;6.33;2.10;;;;;;;;;;6315575;28;20036;-77
2023/05/04 13:49:07;;;;;;;5.37;2.60;;;;;;;;;;6312404;28;20478;-77
2023/05/04 13:52:07;;;;;;;3.93;2.60;;;;;;;;;;6322013;28;20031;-77
2023/05/04 13:55:07;;;;;;;5.40;2.80;;;;;;;;;;6301586;28;20103;-77
2023/05/04 13:58:08;;;;;;;4.00;2.63;;;;;;;;;;6313246;28;20024;-77
2023/05/04 14:01:09;;;;;;;3.50;2.40;;;;;;;;;;6320079;28;20313;-77
2023/05/04 14:04:09;;;;;;;3.85;2.38;;;;;;;;;;6315821;28;20150;-77
2023/05/04 14:07:10;;;;;;;3.72;2.10;;;;;;;;;;6313060;28;20051;-77
2023/05/04 14:10:11;;;;;;;2.93;1.80;;;;;;;;;;6309738;28;20493;-77
2023/05/04 14:13:11;;;;;;;6.82;2.33;;;;;;;;;;6309647;28;20074;-77
2023/05/04 14:16:12;;;;;;;6.37;2.53;;;;;;;;;;6320388;28;20024;-77
2023/05/04 14:19:12;;;;;;;4.00;2.57;;;;;;;;;;6298517;28;20020;-77
2023/05/04 14:22:12;;;;;;;6.20;2.40;;;;;;;;;;6321592;28;20051;-77
2023/05/04 14:25:13;;;;;;;5.47;2.63;;;;;;;;;;6311512;28;20032;-77
2023/05/04 14:28:14;;;;;;;4.53;2.50;;;;;;;;;;6307960;28;20023;-77
2023/05/04 14:31:14;;;;;;;7.32;2.35;;;;;;;;;;6294280;28;20582;-77
2023/05/04 14:34:14;;;;;;;6.20;2.87;;;;;;;;;;6310481;28;20078;-77
2023/05/04 14:37:14;;;;;;;2.43;2.20;;;;;;;;;;6309920;28;20024;-77
2023/05/04 14:40:15;;;;;;;9.60;2.80;;;;;;;;;;6316507;28;20395;-77
2023/05/04 14:43:15;;;;;;;5.03;2.17;;;;;;;;;;6317703;28;20055;-77
2023/05/04 14:46:15;;;;;;;4.73;2.20;;;;;;;;;;6311865;28;20349;-77
2023/05/04 14:49:19;;;;;;;5.55;2.60;;;;;;;;;;6308264;28;20035;-77
2023/05/04 14:52:19;;;;;;;5.50;2.20;;;;;;;;;;6310564;28;20029;-76
2023/05/04 14:55:20;;;;;;;4.23;3.00;;;;;;;;;;6301208;28;20034;-77
2023/05/04 14:58:20;;;;;;;4.00;2.30;;;;;;;;;;6321688;28;20531;-77
2023/05/04 15:01:20;;;;;;;5.30;1.90;;;;;;;;;;6331815;28;20440;-76
2023/05/04 15:04:20;;;;;;;7.10;2.10;;;;;;;;;;6331472;28;20410;-77
2023/05/04 15:07:21;;;;;;;3.17;2.00;;;;;;;;;;6334487;28;20531;-77
2023/05/04 15:10:21;;;;;;;4.80;2.27;;;;;;;;;;6328563;28;20028;-80
2023/05/04 15:13:21;;;;;;;4.90;2.17;;;;;;;;;;6334207;28;20028;-81
2023/05/04 15:16:21;;;;;;;4.13;2.40;;;;;;;;;;6318102;28;20082;-80
2023/05/04 15:19:22;;;;;;;7.00;2.63;;;;;;;;;;6312218;28;20024;-80
2023/05/04 15:22:22;;;;;;;7.53;3.77;;;;;;;;;;6312347;28;20028;-81
2023/05/04 15:25:23;;;;;;;3.03;2.00;;;;;;;;;;6300818;28;20050;-81
2023/05/04 15:28:24;;;;;;;;;;;;;;;;;;6314823;28;20016;-81
2023/05/04 15:31:25;;;;;;;5.47;2.38;;;;;;;;;;6319386;28;19908;-82
2023/05/04 15:34:25;;;;;;;4.47;2.03;;;;;;;;;;6294565;28;20062;-83
2023/05/04 15:37:27;;;;;;;3.00;2.17;;;;;;;;;;6338952;28;20493;-83
2023/05/04 15:40:27;;;;;;;6.88;2.10;;;;;;;;;;6332633;28;20024;-82
2023/05/04 15:43:28;;;;;;;4.50;1.97;;;;;;;;;;6333650;28;20059;-80
2023/05/04 15:46:28;;;;;;;5.50;2.17;;;;;;;;;;6327107;28;20027;-81
2023/05/04 15:49:28;;;;;;;4.33;2.50;;;;;;;;;;6317315;28;20534;-81
2023/05/04 15:52:28;;;;;;;2.75;1.70;;;;;;;;;;6319669;28;20526;-82
2023/05/04 15:55:29;;;;;;;5.17;1.87;;;;;;;;;;6331609;28;20031;-82
2023/05/04 15:58:29;;;;;;;3.50;2.03;;;;;;;;;;6326083;28;20580;-82
2023/05/04 16:01:29;;;;;;;3.47;1.70;;;;;;;;;;6318385;28;20050;-81
2023/05/04 16:04:30;;;;;;;3.60;2.07;;;;;;;;;;6333898;28;20024;-81
2023/05/04 16:07:30;;;;;;;4.77;1.93;;;;;;;;;;6324192;28;20466;-81
2023/05/04 16:10:32;;;;;;;3.63;2.07;;;;;;;;;;6336358;28;20496;-82
2023/05/04 16:13:32;;;;;;;2.70;1.70;;;;;;;;;;6328377;28;20389;-82
2023/05/04 16:16:32;;;;;;;3.83;1.60;;;;;;;;;;6328614;28;20054;-82
2023/05/04 16:19:33;;;;;;;3.80;2.37;;;;;;;;;;6303899;28;20027;-77
2023/05/04 16:22:33;;;;;;;2.90;1.80;;;;;;;;;;6325732;28;20039;-77
2023/05/04 16:25:33;;;;;;;3.95;1.85;;;;;;;;;;6328018;28;20012;-78
2023/05/04 16:28:35;;;;;;;3.30;1.53;;;;;;;;;;6330573;28;20401;-77
2023/05/04 16:31:35;;;;;;;4.43;1.70;;;;;;;;;;6323030;28;20095;-77
2023/05/04 16:34:36;;;;;;;5.23;2.03;;;;;;;;;;6316084;28;20034;-78
2023/05/04 16:37:38;;;;;;;4.17;1.97;;;;;;;;;;6329990;28;20019;-78
2023/05/04 16:40:40;;;;;;;6.75;2.45;;;;;;;;;;6328594;28;20478;-78
2023/05/04 16:43:40;;;;;;;14.80;2.85;;;;;;;;;;6321971;28;20038;-78
2023/05/04 16:49:25;;;;;;;5.18;2.28;;;;;;;;;;6366231;27;20341;-77
2023/05/04 16:52:25;;;;;;;3.90;2.30;;;;;;;;;;6363965;27;20446;-77
2023/05/04 16:55:26;;;;;;;3.77;2.83;;;;;;;;;;6384769;27;20019;-77
2023/05/04 16:58:26;;;;;;;5.73;2.50;;;;;;;;;;6390985;27;20030;-77
2023/05/04 17:01:27;;;;;;;4.20;2.20;;;;;;;;;;6365896;27;20012;-77
2023/05/04 17:04:29;;;;;;;6.57;2.10;;;;;;;;;;6372063;27;20016;-77
2023/05/04 17:07:30;;;;;;;3.70;1.98;;;;;;;;;;6381102;27;20291;-77
2023/05/04 17:10:30;;;;;;;4.03;1.90;;;;;;;;;;6378270;27;20093;-77
2023/05/04 17:13:30;;;;;;;4.28;2.13;;;;;;;;;;6372066;27;20015;-77
2023/05/04 17:16:30;;;;;;;2.95;1.48;;;;;;;;;;6354487;27;20030;-77
2023/05/04 17:19:31;;;;;;;3.40;2.27;;;;;;;;;;6380509;27;20255;-76
2023/05/04 17:22:31;;;;;;;5.43;2.23;;;;;;;;;;6386597;27;20067;-76
2023/05/04 17:25:32;;;;;;;4.80;2.33;;;;;;;;;;6372249;27;20015;-76
2023/05/04 17:28:33;;;;;;;4.20;1.95;;;;;;;;;;6367199;27;20487;-77
2023/05/04 17:31:33;;;;;;;5.50;2.83;;;;;;;;;;6364951;27;20012;-81
2023/05/04 17:34:34;;;;;;;4.60;2.60;;;;;;;;;;6369722;27;20026;-82
2023/05/04 17:37:34;;;;;;;12.27;2.73;;;;;;;;;;6380431;27;20469;-82
2023/05/04 17:40:34;;;;;;;7.10;2.90;;;;;;;;;;6379659;27;20388;-81
2023/05/04 17:43:34;;;;;;;7.73;4.13;;;;;;;;;;6375748;27;20029;-80
2023/05/04 17:46:35;;;;;;;6.60;3.90;;;;;;;;;;6378731;27;20396;-82
2023/05/04 17:49:35;;;;;;;6.90;2.90;;;;;;;;;;6371094;27;20122;-82
2023/05/04 17:52:36;;;;;;;8.10;3.30;;;;;;;;;;6351009;27;20080;-81
2023/05/04 17:55:36;;;;;;;9.57;3.53;;;;;;;;;;6375241;27;20019;-81
2023/05/04 17:58:36;;;;;;;8.20;4.03;;;;;;;;;;6375873;27;20352;-82